createdAt,value
2018-04-10T18:28:43.713Z,19.25
2018-04-10T18:31:12.841Z,19.26
2018-04-10T18:33:41.189Z,19.22
2018-04-10T18:36:09.548Z,19.21
2018-04-10T18:38:38.812Z,19.12
2018-04-10T18:41:07.156Z,19.10
2018-04-10T18:43:35.502Z,19.09
2018-04-10T18:46:03.832Z,19.06
2018-04-10T18:48:32.165Z,18.98
2018-04-10T18:51:00.496Z,18.89
2018-04-10T18:53:28.810Z,18.86
2018-04-10T18:55:57.979Z,18.79
2018-04-10T18:58:26.356Z,18.76
2018-04-10T19:00:54.677Z,18.71
2018-04-10T19:03:23.003Z,18.70
2018-04-10T19:05:51.345Z,18.69
2018-04-10T19:08:19.697Z,18.62
2018-04-10T19:10:48.026Z,18.64
2018-04-10T19:13:16.349Z,18.59
2018-04-10T19:15:44.677Z,18.57
2018-04-10T19:18:13.011Z,18.54
2018-04-10T19:20:41.359Z,18.48
2018-04-10T19:23:09.691Z,18.45
2018-04-10T19:25:38.567Z,18.38
2018-04-10T19:28:10.041Z,18.33
2018-04-10T19:30:38.396Z,18.28
2018-04-10T19:33:06.720Z,18.18
2018-04-10T19:35:35.056Z,18.16
2018-04-10T19:38:03.381Z,18.11
2018-04-10T19:40:31.693Z,18.05
2018-04-10T19:43:00.355Z,18.00
2018-04-10T19:45:28.705Z,17.95
2018-04-10T19:47:57.039Z,17.87
2018-04-10T19:50:25.339Z,17.85
2018-04-10T19:52:53.738Z,17.84
2018-04-10T19:55:22.037Z,17.80
2018-04-10T19:57:50.368Z,17.79
2018-04-10T20:00:18.711Z,17.79
2018-04-10T20:02:47.052Z,17.80
2018-04-10T20:05:15.363Z,17.77
2018-04-10T20:07:43.688Z,17.74
2018-04-10T20:10:15.056Z,17.64
2018-04-10T20:12:43.408Z,17.63
2018-04-10T20:15:11.846Z,17.55
2018-04-10T20:17:40.202Z,17.48
2018-04-10T20:20:08.537Z,17.39
2018-04-10T20:22:36.871Z,17.34
2018-04-10T20:25:05.196Z,17.32
2018-04-10T20:27:33.525Z,17.31
2018-04-10T20:30:01.849Z,17.30
2018-04-10T20:32:30.165Z,17.24
2018-04-10T20:34:58.500Z,17.18
2018-04-10T20:37:26.832Z,17.14
2018-04-10T20:39:55.155Z,17.09
2018-04-10T20:42:23.527Z,17.06
2018-04-10T20:44:51.867Z,17.10
2018-04-10T20:47:20.218Z,17.06
2018-04-10T20:49:48.513Z,17.07
2018-04-10T20:52:20.290Z,17.07
2018-04-10T20:54:51.863Z,17.07
2018-04-10T20:57:20.176Z,17.06
2018-04-10T20:59:48.505Z,17.00
2018-04-10T21:02:16.816Z,16.96
2018-04-10T21:04:45.149Z,16.95
2018-04-10T21:07:13.478Z,16.90
2018-04-10T21:09:41.832Z,16.88
2018-04-10T21:12:10.175Z,16.84
2018-04-10T21:14:38.527Z,16.82
2018-04-10T21:17:06.836Z,16.77
2018-04-10T21:19:35.191Z,16.69
2018-04-10T21:22:03.508Z,16.70
2018-04-10T21:24:31.856Z,16.68
2018-04-10T21:27:00.184Z,16.64
2018-04-10T21:29:28.518Z,16.55
2018-04-10T21:31:56.858Z,16.50
2018-04-10T21:34:25.182Z,16.40
2018-04-10T21:36:53.523Z,16.29
2018-04-10T21:39:21.825Z,16.19
2018-04-10T21:41:50.152Z,16.10
2018-04-10T21:44:18.471Z,16.06
2018-04-10T21:46:46.840Z,16.01
2018-04-10T21:49:15.188Z,15.93
2018-04-10T21:51:43.520Z,15.89
2018-04-10T21:54:11.833Z,15.79
2018-04-10T21:56:40.160Z,15.76
2018-04-10T21:59:08.491Z,15.74
2018-04-10T22:01:36.823Z,15.70
2018-04-10T22:04:05.129Z,15.63
2018-04-10T22:06:33.464Z,15.59
2018-04-10T22:09:01.779Z,15.55
2018-04-10T22:11:30.127Z,15.52
2018-04-10T22:13:58.438Z,15.40
2018-04-10T22:16:26.824Z,15.24
2018-04-10T22:18:55.157Z,15.15
2018-04-10T22:21:23.503Z,15.09
2018-04-10T22:23:51.844Z,15.04
2018-04-10T22:26:20.175Z,15.10
2018-04-10T22:28:48.527Z,15.07
2018-04-10T22:31:16.943Z,15.02
2018-04-10T22:33:45.262Z,14.97
2018-04-10T22:36:13.571Z,14.96
2018-04-10T22:38:41.957Z,14.95
2018-04-10T22:41:10.284Z,14.90
2018-04-10T22:43:38.624Z,14.90
2018-04-10T22:46:06.941Z,14.87
2018-04-10T22:48:35.384Z,14.88
2018-04-10T22:51:03.713Z,14.91
2018-04-10T22:53:32.034Z,14.92
2018-04-10T22:56:00.364Z,14.96
2018-04-10T22:58:28.685Z,14.96
2018-04-10T23:01:10.794Z,14.94
2018-04-10T23:03:42.594Z,14.90
2018-04-10T23:06:10.913Z,14.98
2018-04-10T23:08:39.227Z,15.02
2018-04-10T23:11:07.582Z,15.07
2018-04-10T23:13:35.905Z,15.06
2018-04-10T23:16:04.237Z,15.02
2018-04-10T23:18:32.555Z,14.99
2018-04-10T23:21:00.894Z,14.91
2018-04-10T23:23:29.209Z,14.82
2018-04-10T23:25:57.544Z,14.77
2018-04-10T23:28:25.872Z,14.67
2018-04-10T23:30:54.205Z,14.63
2018-04-10T23:33:22.534Z,14.59
2018-04-10T23:35:50.869Z,14.57
2018-04-10T23:38:19.187Z,14.56
2018-04-10T23:40:47.501Z,14.51
2018-04-10T23:43:15.840Z,14.48
2018-04-10T23:45:44.863Z,14.40
2018-04-10T23:48:13.193Z,14.36
2018-04-10T23:50:41.560Z,14.35
2018-04-10T23:53:09.908Z,14.44
2018-04-10T23:55:38.217Z,14.48
2018-04-10T23:58:06.553Z,14.47
